• Join FlightAware (Why Join?)
  • Login
  • US Flag 
04:23AM EDT


 

Airport Tracker/Info


-or-


 

Live Flight TrackerFlight Track Log ✈ AWE3899 ✈ 27-Apr-2013 ✈ KDCA - KMYR

Flight Track Log - Related Links

Times and Time Zones

All times are in EDT time to prevent confusion due to time zone crossing. See the AWE3899 flight status page for this flight to view local times or setup timezone preferences in your user account.

Time Position Orientation Groundspeed Altitude Reporting Facility
EDT Latitude Longitude Course Direction KTS MPH feet Rate Location/Type
09:26AM 38.8667 -77.0500 180° South 151 174 900  Level Potomac TRACON
09:29AM 38.5441 -76.7167 180° South  Level FlightAware Approximate
09:29AM 38.9656 -77.1642 318° Northwest 237 273 5,100  Level Washington Center
09:30AM 38.4121 -76.7000 180° South  Level FlightAware Approximate
09:30AM 39.0233 -77.2161 325° Northwest 255 293 8,000  Level Washington Center
09:31AM 38.2922 -76.6833 180° South  Level FlightAware Approximate
09:31AM 39.0719 -77.1611 41° Northeast 182 209 10,200  Level Washington Center
09:32AM 38.1604 -76.6667 180° South  Level FlightAware Approximate
09:32AM 39.0253 -77.0719 124° Southeast 156 180 12,400  Level Washington Center
09:33AM 38.9761 -76.9933 129° Southeast 212 244 13,700 1,680 Climbing Washington Center
09:34AM 38.8869 -76.9383 154° Southeast 286 329 15,800 1,800 Climbing Washington Center
09:35AM 38.7939 -76.8781 153° Southeast 330 380 17,400 1,080 Climbing Washington Center
09:36AM 38.6967 -76.8178 154° Southeast 370 426 18,000 780 Climbing Washington Center
09:37AM 38.5972 -76.7553 154° Southeast 393 452 19,000 660 Climbing Washington Center
09:38AM 38.4808 -76.7161 165° South 411 473 19,400 1,080 Climbing Washington Center
09:39AM 38.3661 -76.7014 174° South 422 486 21,200 1,740 Climbing Washington Center
09:40AM 38.2517 -76.6811 172° South 422 486 22,900 1,620 Climbing Washington Center
09:41AM 38.1414 -76.6689 175° South 422 486 24,500 1,260 Climbing Washington Center
09:42AM 38.0267 -76.6542 174° South 422 486 25,500 720 Climbing Washington Center
09:43AM 37.9122 -76.6367 173° South 422 486 26,000 540 Climbing Washington Center
09:44AM 37.7933 -76.6244 175° South 422 486 26,700 780 Climbing Washington Center
09:45AM 37.6747 -76.6097 174° South 422 486 27,600 900 Climbing Washington Center
09:46AM 37.5581 -76.5925 173° South 422 486 28,500 900 Climbing Washington Center
09:47AM 37.4492 -76.6303 195° South 405 466 29,500 720 Climbing Washington Center
09:48AM 37.3467 -76.6761 200° South 405 466 30,000 240 Climbing Washington Center
09:49AM 37.2419 -76.7214 199° South 405 466 30,000  Level Washington Center
09:50AM 37.1289 -76.7667 198° South 400 460 30,000  Level Washington Center
09:51AM 37.0242 -76.8094 198° South 400 460 30,000  Level Washington Center
09:52AM 36.9233 -76.8519 199° South 395 455 30,000  Level Washington Center
09:53AM 36.8228 -76.8944 199° South 390 449 30,000  Level Washington Center
09:54AM 36.7203 -76.9367 198° South 385 443 30,000  Level Washington Center
09:55AM 36.6194 -76.9789 199° South 385 443 30,000  Level Washington Center
09:56AM 36.5272 -77.0136 197° South 385 443 30,000  Level Washington Center
09:57AM 36.4161 -77.0606 199° South 385 443 30,000  Level Washington Center
09:58AM 36.3197 -77.1025 199° South 385 443 30,000  Level Washington Center
09:59AM 36.2275 -77.1369 197° South 385 443 30,000  Level Washington Center
10:00AM 36.1331 -77.1761 199° South 380 437 30,000  Level Washington Center
10:01AM 36.0325 -77.2178 199° South 380 437 30,000  Level Washington Center
10:02AM 35.9317 -77.2542 196° South 380 437 30,000  Level Washington Center
10:03AM 35.8331 -77.2933 198° South 380 437 30,000 -360 Level Washington Center
10:04AM 35.7281 -77.3344 198° South 380 437 29,300 -900 Descending Washington Center
10:05AM 35.6253 -77.3783 199° South 390 449 28,300 -1,080 Descending Washington Center
10:06AM 35.5142 -77.4192 197° South 403 464 27,300 -1,320 Descending Washington Center
10:07AM 35.4006 -77.4675 199° South 415 478 25,800 -1,320 Descending Washington Center
10:08AM 35.2994 -77.5389 210° Southwest 424 488 24,700 -1,080 Descending Washington Center
10:09AM 35.2061 -77.6231 216° Southwest 424 488 23,700 -1,020 Descending Washington Center
10:10AM 35.1150 -77.6994 214° Southwest 418 481 22,700 -900 Descending Washington Center
10:11AM 35.0261 -77.7783 216° Southwest 410 472 22,000 -360 Descending Washington Center
10:12AM 34.9433 -77.8522 216° Southwest 393 452 22,000  Level Washington Center
10:13AM 34.8628 -77.9233 216° Southwest 382 440 22,000 -1,260 Level Washington Center
10:14AM 34.7800 -77.9967 216° Southwest 359 413 19,500 -2,220 Descending Washington Center
10:15AM 34.7033 -78.0628 215° Southwest 352 405 17,600 -2,160 Descending Washington Center
10:16AM 34.6289 -78.1286 216° Southwest 341 392 15,300 -2,040 Descending Washington Center
10:17AM 34.5567 -78.1894 215° Southwest 341 392 13,500 -1,560 Descending Washington Center
10:18AM 34.4347 -78.2933 215° Southwest 302 348 11,000 -900 Descending Jacksonville Center
10:19AM 34.3700 -78.3469 214° Southwest 296 341 11,000  Level Jacksonville Center
10:20AM 34.3072 -78.4006 215° Southwest 291 335 11,000  Level Jacksonville Center
10:21AM 34.2464 -78.4539 216° Southwest 286 329 11,000  Level Jacksonville Center
10:22AM 34.1897 -78.5019 215° Southwest 281 323 11,000 -600 Level Jacksonville Center
10:23AM 34.1356 -78.5600 222° Southwest 281 323 9,800 -1,380 Descending Jacksonville Center
10:24AM 34.0811 -78.6203 223° Southwest 271 312 8,300 -1,740 Descending Jacksonville Center
10:25AM 34.0267 -78.6756 220° Southwest 271 312 6,400 -1,680 Descending Jacksonville Center
10:26AM 33.9703 -78.7358 222° Southwest 271 312 5,000 -1,500 Descending Jacksonville Center
10:27AM 33.9200 -78.7908 222° Southwest 266 306 3,500 -1,500 Descending Jacksonville Center
10:28AM 33.8675 -78.8458 221° Southwest 259 298 2,000 -1,500 Descending Jacksonville Center